Impacts TAF Board
For situational awareness. Not to be used for flight planning purposes.
IDs:

KDCA - Washington/National, VA, US

Issued at 2334 UTC 09 Dec 2022
Updated at 0122 UTC 10 Dec 2022
Potential Impact None Slight Moderate High
Time<<11/02Z 11/03Z 11/04Z 11/05Z 11/06Z 11/07Z 11/08Z 11/09Z 11/10Z 11/11Z 11/12Z 11/13Z 11/14Z
Type PRVL PRVL PRVL PRVL
VIS >6 >6 >6 >6
CIG 100 100 100 100
Cover OVC OVC OVC OVC
FltCat VFR VFR VFR VFR
WX -- -- -- --
WDir 40 40 40 40
WSpd 6 6 6 6
WGst -- -- -- --
WSHgt -- -- -- --
WSDir -- -- -- --
WSSpd -- -- -- --
Raw TAF
KDCA 092334Z 1000/1106 03003KT P6SM SKC
  FM101100 04006KT P6SM OVC100


METAR Board
Radar Display
Forecast Discussion
For situational awareness. Not to be used for flight planning purposes.